Latest Coastal Weather Observations for Warrnambool

IDV60701

Issued at 12:02 pm EST Saturday 2 July 2016 (issued every 10 minutes, with the page automatically refreshed every 10 minutes)

About coastal observations | Map of coastal stations | Coastal observations for VIC | Marine services | Other Formats
Station Details ID: 090186 Name: WARRNAMBOOL AIRPORT NDB Lat: -38.29 Lon: 142.45 Height: 70.8 m
Data from the previous 72 hours. | See also: Recent months at Warrnambool
Date/Time
EST
Temp
°C
Wind Pressure Rain since
9am
mm
Weather Cloud Vis
km
Sea
Height
m
Swell
Dir  Spd
kts
Gust
kts
hPa Trend Height
m
Period
s
Dir
02/12:00pm 13.1 WNW 10 13 1025.4 - 0.0 - Mostly cloudy 10 - - - -
02/11:30am 12.9 NW 9 14 1025.7 - 0.0 - Cloudy 10 - - - -
02/11:00am 12.1 NW 12 17 1025.8 - 0.0 - Cloudy 10 - - - -
02/10:30am 12.2 NW 11 15 1025.7 - 0.0 - Partly cloudy 10 - - - -
02/10:00am 11.0 NW 12 17 1025.4 - 0.0 - Partly cloudy 10 - - - -
02/09:30am 10.7 NW 13 18 1025.1 - 0.0 - Partly cloudy 10 - - - -
02/09:00am 10.3 NW 12 17 1024.8 - 1.6 - - 10 - - - -
02/08:30am 9.5 NW 11 14 1024.6 - 1.6 - Partly cloudy 10 - - - -
02/08:00am 9.9 NW 12 15 1024.4 - 1.6 - Partly cloudy 10 - - - -
02/07:30am 10.1 NW 14 18 1024.2 - 1.6 - Partly cloudy 10 - - - -
02/07:00am 9.1 NW 11 14 1023.6 - 1.6 - - 10 - - - -
02/06:30am 9.5 NW 12 15 1023.3 - 1.6 - Partly cloudy 10 - - - -
02/06:00am 9.8 NW 11 16 1023.1 - 1.6 - Cloudy 10 - - - -
02/05:30am 9.4 NW 10 13 1022.9 - 1.6 - Partly cloudy 10 - - - -
02/05:00am 9.6 NW 11 13 1022.8 - 1.6 - Partly cloudy 10 - - - -
02/04:38am 10.0 NW 11 14 1022.6 - 1.6 - Partly cloudy 10 - - - -
02/04:30am 10.2 NW 12 18 1022.7 - 1.6 - Partly cloudy 7 - - - -
02/04:23am 10.0 NW 11 18 1022.7 - 1.6 - Partly cloudy 5 - - - -
02/04:00am 9.5 NW 11 14 1022.6 - 1.2 - - 10 - - - -
02/03:30am 9.6 NW 11 15 1022.7 - 1.2 - Partly cloudy 10 - - - -
02/03:00am 10.0 NW 11 15 1022.7 - 1.2 Recent precip. Mostly cloudy 10 - - - -
02/02:31am 10.6 NW 10 17 1022.6 - 1.2 - Partly cloudy 9 - - - -
02/02:30am 10.6 NW 11 17 1022.6 - 1.2 - Partly cloudy 9 - - - -
02/02:20am 10.5 NW 9 13 1022.6 - 1.2 - Partly cloudy 10 - - - -
02/02:00am 10.6 NW 11 15 1022.5 - 1.2 - Partly cloudy 2 - - - -
02/01:38am 10.5 NW 11 16 1022.5 - 1.0 - Partly cloudy 5 - - - -
02/01:30am 10.2 NW 12 15 1022.5 - 0.8 - Partly cloudy 10 - - - -
02/01:00am 9.7 NW 10 14 1022.5 - 0.8 - Partly cloudy 10 - - - -
02/12:30am 10.0 NW 10 13 1022.5 - 0.8 - Partly cloudy - - - - -
02/12:00am 10.4 NW 11 13 1022.7 - 0.8 - Mostly cloudy - - - - -
 
Date/Time
EST
Temp
°C
Wind Pressure Rain since
9am
mm
Weather Cloud Vis
km
Sea
Height
m
Swell
Dir  Spd
kts
Gust
kts
hPa Trend Height
m
Period
s
Dir
01/11:45pm 10.6 NW 11 15 1022.7 - 0.8 - Partly cloudy - - - - -
01/11:30pm 10.6 NW 11 14 1022.7 - 0.8 - Partly cloudy - - - - -
01/11:00pm 10.9 NW 12 16 1022.6 - 0.8 - Partly cloudy - - - - -
01/10:50pm 10.9 NW 12 15 1022.5 - 0.6 - Partly cloudy - - - - -
01/10:30pm 10.8 NW 13 15 1022.5 - 0.6 - Partly cloudy - - - - -
01/10:00pm 10.6 NW 11 14 1022.4 - 0.6 - Partly cloudy - - - - -
01/09:52pm 10.6 NW 11 15 1022.5 - 0.6 - Partly cloudy - - - - -
01/09:30pm 10.6 NW 11 15 1022.4 - 0.6 - Cloudy - - - - -
01/09:05pm 10.8 NW 13 16 1022.5 - 0.6 - Partly cloudy - - - - -
01/09:00pm 10.7 NW 12 15 1022.5 - 0.6 Rain Cloudy - - - - -
01/08:30pm 10.6 NW 13 18 1022.4 - 0.4 - Partly cloudy - - - - -
01/08:08pm 10.6 NW 15 21 1022.2 - 0.4 - Partly cloudy - - - - -
01/08:00pm 10.7 NW 12 21 1022.1 - 0.4 - Partly cloudy - - - - -
01/07:54pm 10.6 NW 9 11 1022.3 - 0.2 - Cloudy - - - - -
01/07:30pm 11.0 NW 14 17 1022.1 - 0.0 - Partly cloudy - - - - -
01/07:00pm 11.1 NW 12 16 1021.8 - 0.0 - Partly cloudy - - - - -
01/06:30pm 10.8 NNW 11 14 1021.6 - 0.0 - Partly cloudy - - - - -
01/06:00pm 10.6 NNW 9 13 1021.3 - 0.0 - Mostly cloudy - - - - -
01/05:30pm 10.6 NNW 9 11 1020.9 - 0.0 - Partly cloudy 10 - - - -
01/05:00pm 11.4 NW 11 14 1021.0 - 0.0 - Cloudy 10 - - - -
01/04:30pm 11.4 NW 9 12 1021.1 - 0.0 - Partly cloudy 10 - - - -
01/04:00pm 12.7 NW 9 12 1020.8 - 0.0 - Cloudy 10 - - - -
01/03:30pm 12.3 WNW 11 16 1020.7 - 0.0 - Partly cloudy 10 - - - -
01/03:00pm 12.5 WNW 11 17 1020.6 - 0.0 Recent precip. Cloudy 10 - - - -
01/02:30pm 12.2 WNW 11 16 1020.3 - 0.0 - Partly cloudy 10 - - - -
01/02:00pm 11.8 NW 9 13 1020.5 - 0.0 - Partly cloudy 10 - - - -
01/01:30pm 11.5 WNW 10 14 1020.6 - 0.0 - Partly cloudy 10 - - - -
01/01:00pm 12.5 WNW 11 16 1020.5 - 0.0 - Partly cloudy 10 - - - -
01/12:30pm 11.9 WNW 13 18 1020.8 - 0.0 - Partly cloudy 10 - - - -
01/12:00pm 10.9 WNW 9 13 1021.1 - 0.0 Showers Cloudy 10 - - - -
01/11:30am 10.1 WNW 9 13 1021.3 - 0.0 - Partly cloudy 6 - - - -
01/11:00am 10.7 WNW 8 12 1021.5 - 0.0 - Partly cloudy 10 - - - -
01/10:59am 10.6 WNW 9 12 1021.5 - 0.0 - Partly cloudy 10 - - - -
01/10:39am 10.1 WNW 14 20 1021.6 - 0.0 - Partly cloudy 5 - - - -
01/10:30am 11.5 WNW 9 13 1021.3 - 0.0 - Partly cloudy 10 - - - -
01/10:00am 10.1 WNW 9 13 1021.0 - 0.0 - Partly cloudy 10 - - - -
01/09:30am 9.4 WNW 9 13 1020.7 - 0.0 - Partly cloudy 10 - - - -
01/09:00am 8.8 NW 9 12 1020.2 - 13.6 Recent precip. Cloudy 10 - - - -
01/08:30am 8.8 WNW 7 11 1019.9 - 13.6 - Partly cloudy 10 - - - -
01/08:00am 8.5 W 9 12 1019.5 - 13.4 - Partly cloudy 10 - - - -
01/07:30am 9.5 W 11 13 1019.1 - 13.4 - Cloudy 10 - - - -
01/07:00am 9.4 WSW 13 17 1018.8 - 13.4 - Partly cloudy 10 - - - -
01/06:30am 10.0 WSW 13 18 1018.2 - 13.4 - Partly cloudy 10 - - - -
01/06:00am 10.2 WSW 15 19 1017.8 - 13.4 - Cloudy 10 - - - -
01/05:30am 10.1 WSW 14 21 1017.4 - 13.4 - Partly cloudy 10 - - - -
01/05:00am 10.2 SW 14 21 1016.8 - 13.4 - Partly cloudy 10 - - - -
01/04:30am 9.7 SW 19 24 1016.5 - 13.4 - Partly cloudy 10 - - - -
01/04:00am 9.7 WSW 20 26 1016.1 - 13.4 - Partly cloudy 10 - - - -
01/03:42am 10.3 SW 18 25 1015.9 - 13.4 - Partly cloudy 10 - - - -
01/03:30am 9.7 SW 19 26 1015.7 - 13.4 - Partly cloudy 5 - - - -
01/03:29am 9.8 WSW 19 26 1015.7 - 13.4 - Partly cloudy 5 - - - -
01/03:00am 10.4 SW 18 23 1015.2 - 13.2 Rain Cloudy 10 - - - -
01/02:30am 10.3 SW 19 25 1014.7 - 13.2 - Partly cloudy 10 - - - -
01/02:00am 10.3 WSW 17 21 1014.3 - 13.2 - Partly cloudy 10 - - - -
01/01:30am 10.9 SW 17 23 1013.5 - 13.2 - Partly cloudy 10 - - - -
01/01:00am 10.2 SSW 17 22 1013.1 - 13.2 - Partly cloudy 10 - - - -
01/12:45am 10.4 SSW 14 18 1012.9 - 13.2 - Partly cloudy 10 - - - -
01/12:30am 9.9 SSW 15 23 1012.8 - 12.8 - Partly cloudy 4 - - - -
01/12:25am 10.1 SSW 14 18 1012.7 - 12.4 - Partly cloudy 5 - - - -
01/12:00am 9.8 SSW 15 21 1012.2 - 10.8 Showers Mostly cloudy 10 - - - -
 
Date/Time
EST
Temp
°C
Wind Pressure Rain since
9am
mm
Weather Cloud Vis
km
Sea
Height
m
Swell
Dir  Spd
kts
Gust
kts
hPa Trend Height
m
Period
s
Dir
30/11:30pm 10.9 SSW 18 27 1011.7 - 10.2 - Partly cloudy 10 - - - -
30/11:04pm 10.3 SSW 16 19 1011.0 - 10.2 - Partly cloudy 10 - - - -
30/11:00pm 10.1 SSW 18 25 1011.0 - 10.2 - Partly cloudy 10 - - - -
30/10:49pm 10.1 SSW 17 28 1010.8 - 10.2 - Partly cloudy 5 - - - -
30/10:44pm 10.3 SSW 16 28 1010.7 - 10.0 - Partly cloudy 10 - - - -
30/10:30pm 10.3 SSW 19 26 1010.2 - 9.8 - Partly cloudy 10 - - - -
30/10:00pm 10.1 SW 19 24 1009.4 - 9.8 - Partly cloudy 10 - - - -
30/09:30pm 9.8 SSW 21 27 1008.5 - 9.6 - Partly cloudy 10 - - - -
30/09:00pm 10.0 SW 24 34 1007.6 - 9.6 - Cloudy 10 - - - -
30/08:37pm 10.3 SW 27 40 1006.7 - 9.6 - Partly cloudy 10 - - - -
30/08:30pm 10.6 SW 25 34 1006.4 - 9.6 - Partly cloudy 10 - - - -
30/08:09pm 9.7 WSW 18 29 1005.7 - 9.6 - Partly cloudy 10 - - - -
30/08:00pm 9.5 W 17 23 1005.4 - 9.6 - Partly cloudy 10 - - - -
30/07:58pm 9.4 WSW 18 25 1005.3 - 9.6 - Partly cloudy 10 - - - -
30/07:48pm 8.8 W 18 26 1005.2 - 9.6 - Partly cloudy 5 - - - -
30/07:45pm 8.5 WNW 16 25 1005.1 - 9.6 - Partly cloudy 5 - - - -
30/07:43pm 8.4 WNW 15 25 1005.0 - 9.6 - Partly cloudy 6 - - - -
30/07:30pm 8.2 WNW 13 22 1005.0 - 8.8 - Partly cloudy 10 - - - -
30/07:18pm 7.9 W 12 19 1005.1 - 8.4 - Cloudy 10 - - - -
30/07:00pm 7.5 NW 11 19 1005.1 - 7.2 - Partly cloudy 4 - - - -
30/06:49pm 7.2 NNW 15 24 1004.9 - 6.0 - Partly cloudy 5 - - - -
30/06:36pm 7.3 NNW 21 27 1004.6 - 4.8 - Partly cloudy 5 - - - -
30/06:30pm 7.4 NNW 21 27 1004.6 - 4.2 - Partly cloudy 7 - - - -
30/06:00pm 7.8 NW 19 27 1004.6 - 2.6 Showers Cloudy 8 - - - -
30/05:30pm 8.2 NW 18 23 1004.6 - 2.0 - Partly cloudy 10 - - - -
30/05:00pm 8.3 NW 14 18 1004.7 - 2.0 - Partly cloudy 10 - - - -
30/04:30pm 8.6 NW 17 23 1004.8 - 1.8 - Partly cloudy 10 - - - -
30/04:00pm 8.8 NW 17 22 1004.6 - 1.8 - - 10 - - - -
30/03:30pm 9.3 NW 19 26 1004.4 - 1.8 - Partly cloudy 10 - - - -
30/03:00pm 9.8 WNW 16 27 1004.2 - 1.6 Showers Cloudy 10 - - - -
30/02:55pm 9.8 WNW 17 27 1004.1 - 1.6 - Partly cloudy 10 - - - -
30/02:30pm 10.2 NW 18 25 1003.9 - 1.6 - Partly cloudy 10 - - - -
30/02:00pm 10.1 NW 20 31 1003.8 - 1.6 - Partly cloudy 10 - - - -
30/01:55pm 10.1 NW 16 31 1003.8 - 1.6 - Partly cloudy 10 - - - -
30/01:30pm 8.9 NW 13 22 1004.1 - 1.6 - Partly cloudy 10 - - - -
30/01:14pm 8.8 WNW 19 30 1004.6 - 1.6 - Partly cloudy 10 - - - -
30/01:13pm 8.8 WNW 21 30 1004.5 - 1.6 - Partly cloudy 10 - - - -
30/01:01pm 9.2 WNW 18 29 1004.6 - 1.6 - Partly cloudy 7 - - - -
30/01:00pm 9.3 WNW 17 29 1004.7 - 1.6 - Partly cloudy 7 - - - -
30/12:43pm 9.7 NW 20 34 1004.3 - 1.0 - Partly cloudy 10 - - - -
30/12:42pm 9.6 NW 19 29 1004.4 - 1.0 - Partly cloudy 10 - - - -
30/12:30pm 10.1 NNW 18 24 1004.1 - 1.0 - Partly cloudy 10 - - - -
30/12:00pm 10.4 NNW 19 26 1004.5 - 0.6 - Cloudy 10 - - - -
30/11:52am 10.2 N 19 29 1004.4 - 0.6 - Partly cloudy 10 - - - -
30/11:30am 9.8 N 21 27 1004.7 - 0.6 - Partly cloudy 10 - - - -
30/11:00am 9.0 N 21 30 1005.2 - 0.6 - Partly cloudy 10 - - - -
30/10:46am 9.0 N 19 29 1005.5 - 0.6 - Partly cloudy 10 - - - -
30/10:30am 8.7 N 21 28 1005.7 - 0.6 - Partly cloudy 10 - - - -
30/10:00am 8.9 N 23 31 1005.7 - 0.0 - Partly cloudy 10 - - - -
30/09:35am 8.9 N 22 32 1005.6 - 0.0 - Partly cloudy 10 - - - -
30/09:30am 8.8 N 21 29 1005.6 - 0.0 - Partly cloudy 10 - - - -
30/09:00am 8.7 N 26 36 1005.7 - 0.2 Showers Cloudy 10 - - - -
30/08:35am 8.8 N 24 36 1006.0 - 0.2 - Partly cloudy 10 - - - -
30/08:30am 8.8 N 22 30 1006.1 - 0.2 - Partly cloudy 10 - - - -
30/08:00am 8.6 N 23 28 1006.6 - 0.2 - Partly cloudy 10 - - - -
30/07:30am 9.1 N 21 28 1007.0 - 0.2 - Cloudy 10 - - - -
30/07:00am 8.9 N 23 29 1006.9 - 0.2 - Partly cloudy 10 - - - -
30/06:30am 9.3 N 23 36 1007.2 - 0.0 - Partly cloudy 10 - - - -
30/06:21am 9.4 N 24 36 1007.2 - 0.0 - Partly cloudy 10 - - - -
30/06:00am 9.6 N 22 29 1007.4 - 0.0 Showers Cloudy 10 - - - -
30/05:30am 10.1 N 24 37 1007.4 - 0.0 - Partly cloudy 10 - - - -
30/05:01am 10.2 N 24 34 1007.7 - 0.0 - Partly cloudy 10 - - - -
30/05:00am 10.2 N 25 34 1007.8 - 0.0 - Partly cloudy 10 - - - -
30/04:30am 10.2 N 23 33 1008.2 - 0.0 - Partly cloudy 10 - - - -
30/04:00am 10.2 N 23 34 1008.8 - 0.0 - Partly cloudy 10 - - - -
30/03:59am 10.3 N 23 34 1008.7 - 0.0 - Partly cloudy 10 - - - -
30/03:30am 10.4 N 22 29 1009.5 - 0.0 - Partly cloudy 10 - - - -
30/03:03am 10.4 N 21 31 1010.1 - 0.0 - Cloudy 10 - - - -
30/03:00am 10.4 N 21 28 1010.2 - 0.0 - Cloudy 10 - - - -
30/02:32am 10.6 N 25 35 1010.5 - 0.0 - Cloudy 10 - - - -
30/02:30am 10.6 N 26 34 1010.5 - 0.0 - Cloudy 10 - - - -
30/02:00am 11.0 N 22 30 1010.7 - 0.0 - Cloudy 10 - - - -
30/01:30am 11.1 N 17 29 1011.2 - 0.0 - Cloudy 10 - - - -
30/01:04am 11.1 N 15 28 1011.9 - 0.0 - Partly cloudy 10 - - - -
30/01:00am 10.0 N 12 21 1012.1 - 0.0 - Partly cloudy 10 - - - -
30/12:30am 10.0 N 13 19 1012.6 - 0.0 - Partly cloudy 10 - - - -
30/12:00am 10.7 N 14 19 1013.3 - 0.0 - Cloudy 10 - - - -
 
Date/Time
EST
Temp
°C
Wind Pressure Rain since
9am
mm
Weather Cloud Vis
km
Sea
Height
m
Swell
Dir  Spd
kts
Gust
kts
hPa Trend Height
m
Period
s
Dir
29/11:30pm 10.0 N 14 19 1013.5 - 0.0 - Partly cloudy 10 - - - -
29/11:00pm 10.0 N 14 18 1013.8 - 0.0 - Partly cloudy 10 - - - -
29/10:30pm 10.0 NNE 11 15 1014.7 - 0.0 - Cloudy 10 - - - -
29/10:00pm 10.4 N 14 18 1015.5 - 0.0 - Cloudy 10 - - - -
29/09:30pm 10.6 N 13 18 1016.1 - 0.0 - Cloudy 10 - - - -
29/09:00pm 9.8 N 9 10 1016.7 - 0.0 - Cloudy 10 - - - -
29/08:30pm 9.6 N 8 11 1017.1 - 0.0 - Partly cloudy 10 - - - -
29/08:00pm 10.1 N 12 15 1017.2 - 0.0 - Cloudy 10 - - - -
29/07:30pm 9.4 NNE 10 13 1017.3 - 0.0 - Cloudy 10 - - - -
29/07:00pm 9.9 NNE 11 15 1017.3 - 0.0 - Cloudy 10 - - - -
29/06:30pm 9.4 N 10 14 1017.5 - 0.0 - Cloudy 10 - - - -
29/06:00pm 9.1 N 9 12 1017.6 - 0.0 - Cloudy 10 - - - -
29/05:30pm 9.8 N 11 15 1017.8 - 0.0 - - 10 - - - -
29/05:00pm 11.3 N 13 18 1018.1 - 0.0 - - 10 - - - -
29/04:30pm 11.9 N 13 18 1018.6 - 0.0 - - 10 - - - -
29/04:00pm 11.6 N 13 17 1018.9 - 0.0 - - 10 - - - -
29/03:30pm 12.0 N 13 21 1019.4 - 0.0 - Partly cloudy 10 - - - -
29/03:00pm 12.8 N 17 22 1019.7 - 0.0 - Cloudy 10 - - - -
29/02:30pm 12.9 N 15 23 1020.0 - 0.0 - - 10 - - - -
29/02:00pm 13.2 N 17 24 1020.4 - 0.0 - - 10 - - - -
29/01:30pm 13.3 N 17 27 1021.0 - 0.0 - - 10 - - - -
29/01:29pm 13.3 N 17 27 1021.0 - 0.0 - - 10 - - - -
29/01:00pm 13.2 N 15 23 1021.6 - 0.0 - - 10 - - - -
29/12:30pm 12.9 N 15 21 1022.4 - 0.0 - - 10 - - - -

Other Formats:

Comma delimited format used in spreadsheet applications
http://www.bom.gov.au/fwo/IDV60701/IDV60701.94837.axf

JavaScript Object Notation format (JSON) in row-major order
http://www.bom.gov.au/fwo/IDV60701/IDV60701.94837.json